Briefing drone pour Genas

Rechercher une autre localisation

Conditions de vol :


Nous sommes le : Dimanche 24 octobre 2021
Il est 18:14 UTC (20:14 LT)

Lever de soleil : 05:42 UTC (07:42 LT)
Coucher de soleil : 17:05 UTC (19:05 LT)

Météo

L'essentiel des conditions de vol

VIGILANCE MÉTÉO FRANCE - Rhône (69)
Pas de vigilances particulieres
METAR de LFLL
LFLL 241800Z 18004KT CAVOK 16/07 Q1022 NOSIG

Date d'émission: 24/10/2021
Heure d'émission: 18:00 UTC
Vent: 180° pour 4 KT (7 km/h)
Visibilité horizontale: > 10 km
Plafond : Plafond et visibilité OK (CAVOK)
Température: 16 °C
Point de rosée: 7 °C
Humidité: 55%
Pression (QNH): 1022 hPa
Conditions: Pas de changement dans les 2 heures (NOSIG)
TAF de LFLL
LFLL 241700Z 2418/2524 VRB03KT CAVOK PROB30 TEMPO 2504/2507 4000 BR

Conditions prévues :

Heure d'émission : Bulletin éffectué le 24 à 18:00 UTC
Prévision : Valide du 24 a 18:00 UTC au 25 a 23:59 UTC
Vent : Variable pour 3 KT (6 km/h)
Visibilité : > 10 km

Probabilité : 30 %
Temporairement :

Prévision : Valide du 25 a 04:00 UTC au 25 a 07:00 UTC
Visibilité : 4000 m
Conditions : Brume
WEBCAM POUR GENAS

Réglementation

Voler en sécurité

CARTES AERONAUTIQUE 1/500.000
CARTES VAC (LFLL)
SUP AIP




Chargement des AIP...
NOTAM (GENAS + Terrain à proximité / FIR )




Chargement des NOTAMS...
CONTACT PREFECTURE 69


Avertissement : Les données mises à disposition sont indicatives. Oxygène Drone ne pourra être tenu responsable de dégâts causés aux biens et aux personnes.